createdAt,value
2022-07-27T00:00:08.126Z,59.90
2022-07-27T00:05:10.678Z,60.20
2022-07-27T00:10:14.915Z,60.00
2022-07-27T00:15:18.690Z,60.10
2022-07-27T00:20:27.005Z,60.40
2022-07-27T00:25:29.987Z,60.40
2022-07-27T00:30:33.811Z,60.50
2022-07-27T00:35:36.046Z,61.00
2022-07-27T00:40:39.410Z,60.90
2022-07-27T00:45:43.324Z,61.30
2022-07-27T00:50:47.571Z,61.60
2022-07-27T00:55:49.951Z,61.70
2022-07-27T01:00:53.690Z,61.60
2022-07-27T01:05:56.072Z,61.90
2022-07-27T01:10:59.374Z,61.80
2022-07-27T01:16:06.013Z,62.00
2022-07-27T01:21:09.344Z,62.40
2022-07-27T01:26:13.262Z,62.10
2022-07-27T01:31:15.595Z,62.60
2022-07-27T01:36:17.975Z,62.50
2022-07-27T01:41:21.699Z,62.70
2022-07-27T01:46:24.186Z,63.10
2022-07-27T01:51:26.683Z,63.10
2022-07-27T01:56:30.498Z,63.30
2022-07-27T02:01:32.905Z,63.50
2022-07-27T02:06:35.236Z,63.30
2022-07-27T02:11:38.974Z,63.50
2022-07-27T02:16:41.303Z,63.90
2022-07-27T02:21:44.381Z,63.80
2022-07-27T02:26:49.502Z,64.00
2022-07-27T02:31:52.084Z,64.10
2022-07-27T02:36:54.406Z,64.10
2022-07-27T02:41:58.148Z,64.20
2022-07-27T02:47:00.553Z,64.30
2022-07-27T02:52:03.771Z,64.40
2022-07-27T02:57:08.059Z,64.40
2022-07-27T03:02:10.508Z,64.80
2022-07-27T03:07:12.891Z,64.60
2022-07-27T03:12:16.722Z,64.70
2022-07-27T03:17:19.125Z,65.00
2022-07-27T03:22:21.516Z,65.10
2022-07-27T03:27:25.394Z,65.30
2022-07-27T03:32:27.867Z,65.50
2022-07-27T03:37:30.249Z,65.50
2022-07-27T03:42:34.008Z,65.50
2022-07-27T03:47:36.395Z,65.80
2022-07-27T03:52:38.786Z,65.60
2022-07-27T03:57:42.486Z,65.70
2022-07-27T04:02:45.645Z,65.90
2022-07-27T04:07:48.162Z,65.80
2022-07-27T04:12:58.466Z,65.80
2022-07-27T04:18:01.643Z,66.00
2022-07-27T04:23:04.212Z,66.10
2022-07-27T04:28:08.090Z,66.40
2022-07-27T04:33:10.705Z,66.60
2022-07-27T04:38:13.039Z,66.50
2022-07-27T04:43:16.811Z,66.60
2022-07-27T04:48:19.885Z,67.10
2022-07-27T04:53:22.258Z,67.20
2022-07-27T04:58:26.227Z,67.00
2022-07-27T05:03:28.919Z,67.10
2022-07-27T05:08:31.288Z,67.10
2022-07-27T05:13:37.814Z,67.10
2022-07-27T05:18:40.559Z,67.60
2022-07-27T05:23:42.875Z,67.40
2022-07-27T05:28:46.576Z,67.30
2022-07-27T05:33:52.296Z,67.50
2022-07-27T05:38:56.999Z,67.40
2022-07-27T05:44:00.872Z,67.40
2022-07-27T05:49:03.345Z,67.40
2022-07-27T05:54:05.795Z,67.30
2022-07-27T05:59:09.888Z,69.10
2022-07-27T06:04:14.640Z,70.00
2022-07-27T06:09:17.535Z,69.80
2022-07-27T06:14:21.314Z,67.30
2022-07-27T06:19:23.715Z,65.10
2022-07-27T06:24:38.777Z,63.70
2022-07-27T06:29:43.238Z,61.10
2022-07-27T06:34:45.599Z,58.60
2022-07-27T06:39:49.524Z,56.90
2022-07-27T06:44:53.470Z,54.40
2022-07-27T06:49:55.924Z,52.10
2022-07-27T06:54:58.295Z,52.00
2022-07-27T07:00:02.199Z,52.50
2022-07-27T07:05:05.475Z,53.20
2022-07-27T07:10:09.274Z,54.20
2022-07-27T07:15:13.597Z,55.00
2022-07-27T07:20:15.970Z,55.80
2022-07-27T07:25:18.323Z,56.50
2022-07-27T07:30:24.090Z,57.20
2022-07-27T07:35:26.645Z,57.20
2022-07-27T07:40:45.221Z,57.80
2022-07-27T07:45:51.638Z,57.40
2022-07-27T07:50:54.499Z,56.40
2022-07-27T07:55:56.881Z,53.90
2022-07-27T08:01:01.001Z,50.60
2022-07-27T08:06:03.394Z,49.20
2022-07-27T08:11:05.859Z,51.00
2022-07-27T08:16:09.711Z,51.10
2022-07-27T08:21:12.291Z,49.50
2022-07-27T08:26:14.673Z,49.10
2022-07-27T08:31:22.655Z,48.50
2022-07-27T08:36:29.146Z,47.50
2022-07-27T08:41:31.897Z,45.20
2022-07-27T08:46:37.371Z,43.60
2022-07-27T08:51:42.789Z,42.70
2022-07-27T08:56:47.792Z,44.20
2022-07-27T09:01:51.585Z,44.00
2022-07-27T09:06:54.331Z,43.10
2022-07-27T09:12:08.193Z,42.10
2022-07-27T09:17:52.970Z,42.50
2022-07-27T09:22:47.932Z,42.20
2022-07-27T09:27:54.451Z,42.60
2022-07-27T09:33:00.144Z,40.30
2022-07-27T09:38:18.272Z,39.30
2022-07-27T09:44:12.121Z,39.00
2022-07-27T09:48:44.419Z,39.60
2022-07-27T09:53:47.044Z,39.00
2022-07-27T09:58:50.731Z,39.80
2022-07-27T10:03:59.265Z,40.40
2022-07-27T10:09:02.184Z,39.30
2022-07-27T10:14:04.605Z,39.10
2022-07-27T10:19:14.859Z,38.90
2022-07-27T10:24:32.061Z,37.70
2022-07-27T10:29:34.536Z,37.10
2022-07-27T10:34:40.853Z,36.60
2022-07-27T10:39:45.592Z,36.10
2022-07-27T10:44:59.738Z,36.20
2022-07-27T10:50:23.917Z,35.30
2022-07-27T10:55:46.425Z,34.30
2022-07-27T11:01:02.049Z,34.20
2022-07-27T11:06:31.418Z,34.60
2022-07-27T11:11:31.011Z,36.00
2022-07-27T11:16:43.092Z,36.60
2022-07-27T11:21:51.433Z,36.80
2022-07-27T11:26:53.950Z,36.60
2022-07-27T11:31:58.263Z,35.80
2022-07-27T11:37:11.828Z,35.50
2022-07-27T11:42:20.854Z,36.80
2022-07-27T11:47:23.966Z,37.20
2022-07-27T11:52:28.072Z,36.30
2022-07-27T11:57:32.153Z,36.00
2022-07-27T12:02:34.698Z,36.30
2022-07-27T12:07:38.773Z,36.40
2022-07-27T12:12:41.133Z,37.00
2022-07-27T12:17:43.943Z,37.70
2022-07-27T12:22:50.653Z,38.40
2022-07-27T12:27:59.476Z,38.70
2022-07-27T12:33:03.449Z,39.30
2022-07-27T12:38:09.562Z,39.40
2022-07-27T12:43:16.835Z,39.00
2022-07-27T12:48:21.735Z,39.60
2022-07-27T12:53:25.675Z,39.10
2022-07-27T12:58:28.315Z,39.60
2022-07-27T13:03:30.821Z,40.00
2022-07-27T13:08:34.635Z,39.60
2022-07-27T13:13:37.261Z,38.70
2022-07-27T13:18:39.672Z,38.20
2022-07-27T13:23:43.475Z,38.30
2022-07-27T13:28:46.137Z,37.80
2022-07-27T13:33:50.577Z,38.00
2022-07-27T13:38:54.353Z,38.00
2022-07-27T13:43:56.767Z,37.90
2022-07-27T13:48:59.266Z,37.90
2022-07-27T13:54:03.334Z,37.70
2022-07-27T13:59:06.371Z,37.60
2022-07-27T14:04:09.273Z,37.70
2022-07-27T14:09:18.262Z,37.30
2022-07-27T14:14:21.783Z,37.30
2022-07-27T14:19:29.337Z,37.60
2022-07-27T14:24:37.914Z,37.80
2022-07-27T14:29:40.768Z,37.70
2022-07-27T14:34:43.243Z,38.00
2022-07-27T14:39:47.118Z,38.00
2022-07-27T14:44:49.536Z,37.40
2022-07-27T14:49:51.981Z,37.60
2022-07-27T14:54:55.809Z,37.50
2022-07-27T14:59:58.343Z,37.70
2022-07-27T15:05:00.798Z,38.00
2022-07-27T15:10:06.517Z,38.30
2022-07-27T15:15:10.505Z,38.20
2022-07-27T15:20:13.049Z,37.90
2022-07-27T15:25:17.397Z,38.50
2022-07-27T15:30:19.857Z,38.50
2022-07-27T15:35:22.434Z,38.40
2022-07-27T15:40:26.324Z,38.70
2022-07-27T15:45:28.888Z,38.90
2022-07-27T15:50:31.375Z,39.00
2022-07-27T15:55:35.876Z,39.10
2022-07-27T16:00:41.279Z,39.40
2022-07-27T16:05:45.810Z,39.50
2022-07-27T16:10:53.447Z,39.70
2022-07-27T16:15:56.131Z,39.70
2022-07-27T16:20:59.199Z,39.80
2022-07-27T16:26:05.948Z,40.20
2022-07-27T16:31:11.124Z,40.40
2022-07-27T16:36:17.098Z,40.60
2022-07-27T16:41:23.136Z,40.80
2022-07-27T16:46:25.896Z,41.80
2022-07-27T16:51:28.969Z,41.30
2022-07-27T16:56:34.731Z,41.30
2022-07-27T17:01:38.843Z,41.30
2022-07-27T17:06:41.748Z,41.40
2022-07-27T17:11:45.896Z,41.50
2022-07-27T17:16:51.824Z,42.40
2022-07-27T17:21:54.835Z,41.60
2022-07-27T17:26:58.777Z,41.80
2022-07-27T17:32:01.176Z,41.80
2022-07-27T17:37:03.556Z,41.80
2022-07-27T17:42:08.157Z,41.70
2022-07-27T17:47:11.416Z,42.10
2022-07-27T17:52:14.297Z,41.90
2022-07-27T17:57:18.328Z,41.60
2022-07-27T18:02:20.878Z,41.60
2022-07-27T18:07:23.440Z,41.60
2022-07-27T18:12:27.357Z,41.50
2022-07-27T18:17:29.937Z,41.70
2022-07-27T18:22:36.691Z,41.80
2022-07-27T18:27:42.397Z,42.10
2022-07-27T18:32:44.717Z,42.50
2022-07-27T18:37:51.532Z,42.80
2022-07-27T18:43:05.756Z,43.30
2022-07-27T18:48:35.460Z,43.20
2022-07-27T18:53:59.191Z,44.20
2022-07-27T18:59:15.522Z,44.60
2022-07-27T19:04:26.841Z,44.90
2022-07-27T19:09:29.644Z,45.20
2022-07-27T19:14:33.637Z,45.50
2022-07-27T19:19:38.301Z,46.10
2022-07-27T19:24:41.320Z,46.20
2022-07-27T19:29:45.337Z,46.30
2022-07-27T19:34:47.891Z,46.70
2022-07-27T19:39:57.156Z,46.90
2022-07-27T19:45:08.217Z,47.30
2022-07-27T19:50:10.938Z,48.00
2022-07-27T19:55:13.783Z,47.90
2022-07-27T20:00:18.234Z,48.20
2022-07-27T20:05:20.940Z,48.60
2022-07-27T20:10:23.712Z,48.70
2022-07-27T20:15:27.737Z,49.00
2022-07-27T20:20:30.350Z,49.50
2022-07-27T20:25:39.312Z,49.70
2022-07-27T20:30:43.988Z,50.00
2022-07-27T20:35:46.554Z,50.60
2022-07-27T20:40:48.979Z,50.70
2022-07-27T20:45:53.261Z,51.00
2022-07-27T20:50:55.742Z,51.40
2022-07-27T20:55:58.222Z,51.40
2022-07-27T21:01:02.292Z,51.60
2022-07-27T21:06:04.934Z,52.10
2022-07-27T21:11:07.580Z,52.20
2022-07-27T21:16:15.081Z,52.40
2022-07-27T21:21:17.967Z,52.90
2022-07-27T21:26:20.355Z,52.80
2022-07-27T21:31:26.086Z,52.90
2022-07-27T21:36:28.605Z,53.10
2022-07-27T21:41:31.524Z,52.90
2022-07-27T21:46:35.444Z,52.90
2022-07-27T21:51:37.976Z,53.20
2022-07-27T21:56:41.925Z,53.10
2022-07-27T22:01:46.512Z,53.30
2022-07-27T22:06:53.465Z,53.60
2022-07-27T22:11:56.760Z,54.00
2022-07-27T22:17:00.659Z,53.80
2022-07-27T22:22:03.337Z,54.20
2022-07-27T22:27:05.943Z,54.40
2022-07-27T22:32:11.327Z,54.60
2022-07-27T22:37:15.060Z,55.10
2022-07-27T22:42:17.853Z,55.20
2022-07-27T22:47:21.833Z,55.40
2022-07-27T22:52:24.333Z,55.80
2022-07-27T22:57:26.922Z,55.80
2022-07-27T23:02:30.880Z,55.90
2022-07-27T23:07:34.241Z,56.50
2022-07-27T23:12:36.750Z,56.80
2022-07-27T23:17:40.669Z,57.10
2022-07-27T23:22:43.550Z,57.60
2022-07-27T23:27:52.331Z,57.60
2022-07-27T23:32:56.491Z,57.70
2022-07-27T23:37:59.631Z,57.90
2022-07-27T23:43:01.981Z,58.10
2022-07-27T23:48:06.422Z,58.10
2022-07-27T23:53:09.184Z,58.50
2022-07-27T23:58:11.941Z,58.40
